createdAt,value
2019-03-23T00:00:19.413Z,8.80
2019-03-23T00:02:47.866Z,8.20
2019-03-23T00:05:16.299Z,8.70
2019-03-23T00:07:44.714Z,9.20
2019-03-23T00:10:13.207Z,9.13
2019-03-23T00:12:41.627Z,8.87
2019-03-23T00:15:11.390Z,8.80
2019-03-23T00:17:39.812Z,9.53
2019-03-23T00:20:08.390Z,9.70
2019-03-23T00:22:37.028Z,8.77
2019-03-23T00:25:05.999Z,9.73
2019-03-23T00:27:34.583Z,9.73
2019-03-23T00:30:04.543Z,10.30
2019-03-23T00:32:33.115Z,8.77
2019-03-23T00:35:01.548Z,8.73
2019-03-23T00:37:29.991Z,9.40
2019-03-23T00:39:58.553Z,9.47
2019-03-23T00:42:26.967Z,9.73
2019-03-23T00:44:55.418Z,9.77
2019-03-23T00:47:25.899Z,10.80
2019-03-23T00:49:54.346Z,9.37
2019-03-23T00:52:22.860Z,9.70
2019-03-23T00:54:51.294Z,10.07
2019-03-23T00:57:19.777Z,10.73
2019-03-23T00:59:48.253Z,10.83
2019-03-23T01:02:16.676Z,10.10
2019-03-23T01:04:45.108Z,9.93
2019-03-23T01:07:13.554Z,9.27
2019-03-23T01:09:41.999Z,9.73
2019-03-23T01:12:10.470Z,9.37
2019-03-23T01:14:38.958Z,9.67
2019-03-23T01:17:07.434Z,9.77
2019-03-23T01:19:35.918Z,10.13
2019-03-23T01:22:04.347Z,11.27
2019-03-23T01:24:32.775Z,12.57
2019-03-23T01:27:01.247Z,11.87
2019-03-23T01:29:29.659Z,9.27
2019-03-23T01:31:58.144Z,9.47
2019-03-23T01:34:26.590Z,10.43
2019-03-23T01:37:02.431Z,10.20
2019-03-23T01:39:25.200Z,9.20
2019-03-23T01:41:53.630Z,10.37
2019-03-23T01:44:22.066Z,10.20
2019-03-23T01:46:50.582Z,10.73
2019-03-23T01:49:19.436Z,10.97
2019-03-23T01:51:47.939Z,10.90
2019-03-23T01:54:16.371Z,11.53
2019-03-23T01:56:44.810Z,11.00
2019-03-23T01:59:13.262Z,10.73
2019-03-23T02:01:41.770Z,11.27
2019-03-23T02:04:10.229Z,10.80
2019-03-23T02:06:38.656Z,10.87
2019-03-23T02:09:07.482Z,11.27
2019-03-23T02:11:36.004Z,11.93
2019-03-23T02:14:04.447Z,11.20
2019-03-23T02:16:32.927Z,10.20
2019-03-23T02:19:01.370Z,9.90
2019-03-23T02:21:29.848Z,11.10
2019-03-23T02:23:58.284Z,10.23
2019-03-23T02:26:26.757Z,10.73
2019-03-23T02:28:55.211Z,11.27
2019-03-23T02:31:23.674Z,10.60
2019-03-23T02:33:52.318Z,11.63
2019-03-23T02:36:20.859Z,11.37
2019-03-23T02:38:49.271Z,12.43
2019-03-23T02:41:17.736Z,11.37
2019-03-23T02:43:46.149Z,11.67
2019-03-23T02:46:14.627Z,12.13
2019-03-23T02:48:43.084Z,12.43
2019-03-23T02:51:11.527Z,11.73
2019-03-23T02:53:40.068Z,12.30
2019-03-23T02:56:08.527Z,12.23
2019-03-23T02:58:36.959Z,11.37
2019-03-23T03:01:05.437Z,12.13
2019-03-23T03:03:33.931Z,13.23
2019-03-23T03:06:02.389Z,12.97
2019-03-23T03:08:30.905Z,12.77
2019-03-23T03:10:59.390Z,12.40
2019-03-23T03:13:27.844Z,12.23
2019-03-23T03:15:56.305Z,12.10
2019-03-23T03:18:24.835Z,12.30
2019-03-23T03:20:53.308Z,12.37
2019-03-23T03:23:21.741Z,13.67
2019-03-23T03:25:50.181Z,12.73
2019-03-23T03:28:18.630Z,12.40
2019-03-23T03:30:47.102Z,11.53
2019-03-23T03:33:15.581Z,12.10
2019-03-23T03:35:44.122Z,13.03
2019-03-23T03:38:12.603Z,13.10
2019-03-23T03:40:41.027Z,12.87
2019-03-23T03:43:09.462Z,12.80
2019-03-23T03:45:37.947Z,13.50
2019-03-23T03:48:06.380Z,13.60
2019-03-23T03:50:34.831Z,13.07
2019-03-23T03:53:03.303Z,14.00
2019-03-23T03:55:31.768Z,13.60
2019-03-23T03:58:00.223Z,13.63
2019-03-23T04:00:28.672Z,13.87
2019-03-23T04:02:57.184Z,13.73
2019-03-23T04:05:25.620Z,14.97
2019-03-23T04:07:54.063Z,14.00
2019-03-23T04:10:22.524Z,13.77
2019-03-23T04:12:50.947Z,13.33
2019-03-23T04:15:19.401Z,13.43
2019-03-23T04:17:47.862Z,13.03
2019-03-23T04:20:16.313Z,14.17
2019-03-23T04:22:44.808Z,13.40
2019-03-23T04:25:13.319Z,14.77
2019-03-23T04:27:41.799Z,15.07
2019-03-23T04:30:11.870Z,15.13
2019-03-23T04:32:40.478Z,13.67
2019-03-23T04:35:10.049Z,13.57
2019-03-23T04:37:38.623Z,13.60
2019-03-23T04:40:10.104Z,14.83
2019-03-23T04:42:38.528Z,15.20
2019-03-23T04:45:09.005Z,15.53
2019-03-23T04:47:37.632Z,15.40
2019-03-23T04:50:10.741Z,14.90
2019-03-23T04:52:39.263Z,15.03
2019-03-23T04:55:12.291Z,14.60
2019-03-23T04:57:40.987Z,16.33
2019-03-23T05:00:12.512Z,15.07
2019-03-23T05:02:40.951Z,14.70
2019-03-23T05:05:09.518Z,14.93
2019-03-23T05:07:38.005Z,14.63
2019-03-23T05:10:07.578Z,15.53
2019-03-23T05:12:35.999Z,14.77
2019-03-23T05:15:06.271Z,15.17
2019-03-23T05:17:34.963Z,16.37
2019-03-23T05:20:33.216Z,18.00
2019-03-23T05:23:04.580Z,16.47
2019-03-23T05:25:42.119Z,15.67
2019-03-23T05:28:13.158Z,15.63
2019-03-23T05:30:48.055Z,16.77
2019-03-23T05:33:16.884Z,15.47
2019-03-23T05:35:45.372Z,15.77
2019-03-23T05:38:14.163Z,14.53
2019-03-23T05:40:43.573Z,15.27
2019-03-23T05:43:13.376Z,15.47
2019-03-23T05:45:43.435Z,14.93
2019-03-23T05:48:14.166Z,16.50
2019-03-23T05:50:44.656Z,15.53
2019-03-23T05:53:14.040Z,17.47
2019-03-23T05:55:43.321Z,15.90
2019-03-23T05:58:14.037Z,15.80
2019-03-23T06:00:43.461Z,17.53
2019-03-23T06:03:13.653Z,19.60
2019-03-23T06:05:44.372Z,17.37
2019-03-23T06:08:13.607Z,16.83
2019-03-23T06:10:44.646Z,17.20
2019-03-23T06:13:15.703Z,17.67
2019-03-23T06:15:45.207Z,16.63
2019-03-23T06:18:15.261Z,17.87
2019-03-23T06:20:44.533Z,16.17
2019-03-23T06:23:15.581Z,16.20
2019-03-23T06:25:45.616Z,14.03
2019-03-23T06:28:14.552Z,14.10
2019-03-23T06:30:44.939Z,15.17
2019-03-23T06:33:14.633Z,17.57
2019-03-23T06:35:43.574Z,22.77
2019-03-23T06:38:13.315Z,34.53
2019-03-23T06:40:45.818Z,29.53
2019-03-23T06:43:14.845Z,19.67
2019-03-23T06:45:44.097Z,15.20
2019-03-23T06:48:13.903Z,13.10
2019-03-23T06:50:43.542Z,14.50
2019-03-23T06:53:14.778Z,16.70
2019-03-23T06:55:44.537Z,14.40
2019-03-23T06:58:13.351Z,16.80
2019-03-23T07:00:43.909Z,12.93
2019-03-23T07:03:16.973Z,14.90
2019-03-23T07:05:45.407Z,13.60
2019-03-23T07:08:14.651Z,10.73
2019-03-23T07:10:44.002Z,10.73
2019-03-23T07:13:13.743Z,10.90
2019-03-23T07:16:30.865Z,8.90
2019-03-23T07:19:00.782Z,8.43
2019-03-23T07:21:30.907Z,9.27
2019-03-23T07:24:00.824Z,10.60
2019-03-23T07:26:39.471Z,10.53
2019-03-23T07:29:13.167Z,10.43
2019-03-23T07:31:42.891Z,9.90
2019-03-23T07:34:14.908Z,10.20
2019-03-23T07:36:48.141Z,10.23
2019-03-23T07:39:26.501Z,9.87
2019-03-23T07:41:46.738Z,9.47
2019-03-23T07:47:09.613Z,10.10
2019-03-23T07:49:46.450Z,10.73
2019-03-23T07:52:20.843Z,11.70
2019-03-23T07:54:49.359Z,11.00
2019-03-23T07:57:19.511Z,11.50
2019-03-23T07:59:48.126Z,11.67
2019-03-23T08:02:16.553Z,12.57
2019-03-23T08:12:38.852Z,13.83
2019-03-23T08:15:18.090Z,11.43
2019-03-23T08:17:46.528Z,11.47
2019-03-23T08:20:38.583Z,11.37
2019-03-23T08:23:13.276Z,11.90
2019-03-23T08:25:44.488Z,12.03
2019-03-23T08:28:13.749Z,12.07
2019-03-23T08:33:48.354Z,13.03
2019-03-23T08:37:13.877Z,13.57
2019-03-23T08:39:48.674Z,13.03
2019-03-23T08:42:14.744Z,12.67
2019-03-23T08:44:43.279Z,14.30
2019-03-23T08:47:11.859Z,14.73
2019-03-23T08:49:40.311Z,13.87
2019-03-23T08:52:08.765Z,14.43
2019-03-23T08:54:37.240Z,16.67
2019-03-23T08:57:05.700Z,15.17
2019-03-23T08:59:34.166Z,16.03
2019-03-23T09:02:02.659Z,15.50
2019-03-23T09:04:31.112Z,17.10
2019-03-23T09:06:59.568Z,15.90
2019-03-23T09:09:28.046Z,16.40
2019-03-23T09:11:56.528Z,16.40
2019-03-23T09:14:24.983Z,16.30
2019-03-23T09:16:53.413Z,15.93
2019-03-23T09:19:21.864Z,16.10
2019-03-23T09:21:50.366Z,17.33
2019-03-23T09:24:18.837Z,22.00
2019-03-23T09:26:47.544Z,20.53
2019-03-23T09:29:16.022Z,17.87
2019-03-23T09:31:44.582Z,17.77
2019-03-23T09:34:13.071Z,18.27
2019-03-23T09:36:41.558Z,18.20
2019-03-23T09:39:10.017Z,19.30
2019-03-23T09:41:38.512Z,18.80
2019-03-23T09:44:06.947Z,18.60
2019-03-23T09:46:35.399Z,20.13
2019-03-23T09:49:03.873Z,19.87
2019-03-23T09:51:32.366Z,20.90
2019-03-23T09:54:00.797Z,21.73
2019-03-23T09:56:29.249Z,22.47
2019-03-23T09:58:57.695Z,22.97
2019-03-23T10:01:26.147Z,22.70
2019-03-23T10:03:54.621Z,24.67
2019-03-23T10:06:23.197Z,23.33
2019-03-23T10:08:51.691Z,22.23
2019-03-23T10:11:20.174Z,22.13
2019-03-23T10:13:48.617Z,22.70
2019-03-23T10:16:17.104Z,22.60
2019-03-23T10:18:45.660Z,24.27
2019-03-23T10:21:14.116Z,23.43
2019-03-23T10:23:42.594Z,24.87
2019-03-23T10:26:11.257Z,24.67
2019-03-23T10:28:39.717Z,24.33
2019-03-23T10:31:08.155Z,24.33
2019-03-23T10:33:36.628Z,26.17
2019-03-23T10:36:05.407Z,25.20
2019-03-23T10:38:33.905Z,26.07
2019-03-23T10:41:02.348Z,24.33
2019-03-23T10:43:30.854Z,26.07
2019-03-23T10:45:59.315Z,22.27
2019-03-23T10:48:27.745Z,23.87
2019-03-23T10:50:56.211Z,24.20
2019-03-23T10:53:24.670Z,25.10
2019-03-23T10:55:53.147Z,23.63
2019-03-23T10:58:21.631Z,23.83
2019-03-23T11:00:51.531Z,24.30
2019-03-23T11:03:20.020Z,25.33
2019-03-23T11:05:48.467Z,23.43
2019-03-23T11:08:16.928Z,23.40
2019-03-23T11:10:45.363Z,19.83
2019-03-23T11:13:13.836Z,20.27
2019-03-23T11:15:42.324Z,22.80
2019-03-23T11:18:10.821Z,20.63
2019-03-23T11:20:39.302Z,21.20
2019-03-23T11:23:07.798Z,19.43
2019-03-23T11:25:36.231Z,19.83
2019-03-23T11:28:04.848Z,18.80
2019-03-23T11:30:33.304Z,20.03
2019-03-23T11:33:01.723Z,18.20
2019-03-23T11:35:30.218Z,19.00
2019-03-23T11:37:59.276Z,18.17
2019-03-23T11:40:28.875Z,17.27
2019-03-23T11:42:57.607Z,18.93
2019-03-23T11:45:26.128Z,17.43
2019-03-23T11:47:54.604Z,18.77
2019-03-23T11:50:23.139Z,18.00
2019-03-23T11:52:51.618Z,18.70
2019-03-23T11:55:20.093Z,18.07
2019-03-23T11:57:48.560Z,17.80
2019-03-23T12:00:17.453Z,16.70
2019-03-23T12:02:46.001Z,17.73
2019-03-23T12:05:14.708Z,17.07
2019-03-23T12:07:43.128Z,17.67
2019-03-23T12:10:13.026Z,16.73
2019-03-23T12:12:41.607Z,18.07
2019-03-23T12:15:12.650Z,16.77
2019-03-23T12:17:41.113Z,20.13
2019-03-23T12:20:12.077Z,20.83
2019-03-23T12:22:40.592Z,17.20
2019-03-23T12:25:10.787Z,17.23
2019-03-23T12:27:40.850Z,18.20
2019-03-23T12:30:14.995Z,17.43
2019-03-23T12:32:45.455Z,25.37
2019-03-23T12:35:14.085Z,17.33
2019-03-23T12:37:42.614Z,17.67
2019-03-23T12:40:11.821Z,18.63
2019-03-23T12:42:40.352Z,18.83
2019-03-23T12:45:09.304Z,18.90
2019-03-23T12:47:37.824Z,18.57
2019-03-23T12:50:08.065Z,17.43
2019-03-23T12:52:36.520Z,18.27
2019-03-23T12:55:07.490Z,18.60
2019-03-23T12:57:35.939Z,19.40
2019-03-23T13:00:07.479Z,17.80
2019-03-23T13:02:35.974Z,18.10
2019-03-23T13:05:06.514Z,17.73
2019-03-23T13:07:34.979Z,17.03
2019-03-23T13:10:04.358Z,17.60
2019-03-23T13:12:32.831Z,17.33
2019-03-23T13:15:01.293Z,16.73
2019-03-23T13:17:30.771Z,25.73
2019-03-23T13:19:59.234Z,20.97
2019-03-23T13:22:27.751Z,19.47
2019-03-23T13:24:58.335Z,17.97
2019-03-23T13:27:26.774Z,19.20
2019-03-23T13:29:55.199Z,16.90
2019-03-23T13:32:23.647Z,16.70
2019-03-23T13:34:53.003Z,17.37
2019-03-23T13:37:21.459Z,16.30
2019-03-23T13:39:50.099Z,17.43
2019-03-23T13:42:18.616Z,17.67
2019-03-23T13:44:47.064Z,18.30
2019-03-23T13:47:15.501Z,17.53
2019-03-23T13:49:43.951Z,16.57
2019-03-23T13:52:12.489Z,17.03
2019-03-23T13:54:40.929Z,16.57
2019-03-23T13:57:09.394Z,16.77
2019-03-23T13:59:37.844Z,17.13
2019-03-23T14:02:06.298Z,17.17
2019-03-23T14:04:34.726Z,16.77
2019-03-23T14:07:03.174Z,16.37
2019-03-23T14:09:31.637Z,17.33
2019-03-23T14:12:00.179Z,16.10
2019-03-23T14:14:28.659Z,16.47
2019-03-23T14:16:58.218Z,15.50
2019-03-23T14:19:26.744Z,17.27
2019-03-23T14:21:55.204Z,18.63
2019-03-23T14:24:23.652Z,17.97
2019-03-23T14:26:52.101Z,17.57
2019-03-23T14:29:20.565Z,17.10
2019-03-23T14:31:49.033Z,17.17
2019-03-23T14:34:17.505Z,17.07
2019-03-23T14:36:45.955Z,16.90
2019-03-23T14:39:14.398Z,17.27
2019-03-23T14:41:42.830Z,17.20
2019-03-23T14:44:11.340Z,16.40
2019-03-23T14:46:39.785Z,17.43
2019-03-23T14:49:08.292Z,18.17
2019-03-23T14:51:36.740Z,19.43
2019-03-23T14:54:05.379Z,19.50
2019-03-23T14:56:33.817Z,18.03
2019-03-23T14:59:02.337Z,18.57
2019-03-23T15:01:30.785Z,18.57
2019-03-23T15:03:59.222Z,18.27
2019-03-23T15:06:27.660Z,20.07
2019-03-23T15:08:56.162Z,20.70
2019-03-23T15:11:24.621Z,20.43
2019-03-23T15:13:53.064Z,18.70
2019-03-23T15:16:21.535Z,19.57
2019-03-23T15:18:49.993Z,20.00
2019-03-23T15:21:18.469Z,19.67
2019-03-23T15:23:46.894Z,19.87
2019-03-23T15:26:15.363Z,19.90
2019-03-23T15:28:43.790Z,21.47
2019-03-23T15:31:12.248Z,17.63
2019-03-23T15:33:42.514Z,19.17
2019-03-23T15:36:10.958Z,19.73
2019-03-23T15:38:39.383Z,19.70
2019-03-23T15:41:07.840Z,19.67
2019-03-23T15:43:36.276Z,19.43
2019-03-23T15:46:04.790Z,20.33
2019-03-23T15:48:33.247Z,19.80
2019-03-23T15:51:03.299Z,20.73
2019-03-23T15:53:31.809Z,20.77
2019-03-23T15:56:02.117Z,21.43
2019-03-23T15:58:30.598Z,19.20
2019-03-23T16:00:59.063Z,18.70
2019-03-23T16:03:27.532Z,20.63
2019-03-23T16:05:55.986Z,20.67
2019-03-23T16:08:24.443Z,20.93
2019-03-23T16:10:52.987Z,18.73
2019-03-23T16:13:21.467Z,19.30
2019-03-23T16:15:50.004Z,19.67
2019-03-23T16:18:18.443Z,22.33
2019-03-23T16:20:46.900Z,21.30
2019-03-23T16:23:18.288Z,18.50
2019-03-23T16:25:46.989Z,19.80
2019-03-23T16:28:15.505Z,18.40
2019-03-23T16:30:43.960Z,19.90
2019-03-23T16:33:12.399Z,20.27
2019-03-23T16:35:41.050Z,19.57
2019-03-23T16:38:09.512Z,19.20
2019-03-23T16:40:38.012Z,18.83
2019-03-23T16:43:06.561Z,21.63
2019-03-23T16:45:35.047Z,22.33
2019-03-23T16:48:04.019Z,20.40
2019-03-23T16:50:51.797Z,23.87
2019-03-23T16:53:20.440Z,18.77
2019-03-23T16:55:48.908Z,20.23
2019-03-23T16:58:17.336Z,21.60
2019-03-23T17:00:45.804Z,18.50
2019-03-23T17:03:15.007Z,17.37
2019-03-23T17:05:43.971Z,17.50
2019-03-23T17:08:15.261Z,19.00
2019-03-23T17:10:45.166Z,18.13
2019-03-23T17:13:13.774Z,21.93
2019-03-23T17:15:45.114Z,19.23
2019-03-23T17:18:36.415Z,20.43
2019-03-23T17:41:52.453Z,18.17
2019-03-23T17:44:20.918Z,19.57
2019-03-23T17:47:08.681Z,22.17
2019-03-23T17:49:37.132Z,21.50
2019-03-23T17:52:05.699Z,18.20
2019-03-23T17:54:34.123Z,23.10
2019-03-23T17:57:02.595Z,24.23
2019-03-23T17:59:31.041Z,22.43
2019-03-23T18:01:59.466Z,24.17
2019-03-23T18:04:28.026Z,23.63
2019-03-23T18:06:56.530Z,23.90
2019-03-23T18:09:24.987Z,21.83
2019-03-23T18:11:53.447Z,26.00
2019-03-23T18:14:23.766Z,24.77
2019-03-23T18:16:52.250Z,22.33
2019-03-23T18:19:20.697Z,23.83
2019-03-23T18:21:49.120Z,22.63
2019-03-23T18:24:17.598Z,22.53
2019-03-23T18:26:46.087Z,25.93
2019-03-23T18:29:14.560Z,23.97
2019-03-23T18:31:42.970Z,25.53
2019-03-23T18:34:11.502Z,26.70
2019-03-23T18:36:40.233Z,26.63
2019-03-23T18:39:08.704Z,24.43
2019-03-23T18:41:37.171Z,27.90
2019-03-23T18:44:24.999Z,21.27
2019-03-23T18:46:53.435Z,21.97
2019-03-23T18:49:21.979Z,27.83
2019-03-23T18:51:50.411Z,28.90
2019-03-23T18:54:18.837Z,29.10
2019-03-23T18:56:47.479Z,28.70
2019-03-23T18:59:15.931Z,28.67
2019-03-23T19:01:44.987Z,30.40
2019-03-23T19:04:15.427Z,28.93
2019-03-23T19:06:44.856Z,29.00
2019-03-23T19:09:20.604Z,29.33
2019-03-23T19:11:49.196Z,28.47
2019-03-23T19:14:17.634Z,30.23
2019-03-23T19:16:46.085Z,30.87
2019-03-23T19:19:14.910Z,30.90
2019-03-23T19:21:44.217Z,31.37
2019-03-23T19:24:14.060Z,28.13
2019-03-23T19:26:44.286Z,31.63
2019-03-23T19:29:14.268Z,31.37
2019-03-23T19:31:43.680Z,30.47
2019-03-23T19:34:14.136Z,29.83
2019-03-23T19:36:44.736Z,29.53
2019-03-23T19:39:15.951Z,32.47
2019-03-23T19:41:44.649Z,31.73
2019-03-23T19:44:14.671Z,32.17
2019-03-23T19:46:44.789Z,31.87
2019-03-23T19:49:38.009Z,32.50
2019-03-23T19:52:11.881Z,31.60
2019-03-23T19:57:37.129Z,33.83
2019-03-23T20:00:13.359Z,35.27
2019-03-23T20:02:43.786Z,37.33
2019-03-23T20:05:13.451Z,34.53
2019-03-23T20:07:44.337Z,30.90
2019-03-23T20:10:14.173Z,36.10
2019-03-23T20:12:45.017Z,36.53
2019-03-23T20:15:16.276Z,37.43
2019-03-23T20:17:45.541Z,35.70
2019-03-23T20:20:14.614Z,39.83
2019-03-23T20:22:44.250Z,38.07
2019-03-23T20:25:14.733Z,37.40
2019-03-23T20:27:44.461Z,35.97
2019-03-23T20:30:14.890Z,34.03
2019-03-23T20:32:44.286Z,38.77
2019-03-23T20:35:15.731Z,39.10
2019-03-23T20:38:38.344Z,38.47
2019-03-23T20:41:26.224Z,38.00
2019-03-23T20:43:54.753Z,37.97
2019-03-23T20:46:24.089Z,38.70
2019-03-23T20:48:53.153Z,39.97
2019-03-23T20:51:27.267Z,39.80
2019-03-23T20:53:55.793Z,38.57
2019-03-23T20:56:24.248Z,38.13
2019-03-23T20:58:52.712Z,39.17
2019-03-23T21:01:21.294Z,41.40
2019-03-23T21:03:49.764Z,40.43
2019-03-23T21:06:18.216Z,42.03
2019-03-23T21:08:46.656Z,41.00
2019-03-23T21:11:15.088Z,42.87
2019-03-23T21:13:43.534Z,41.80
2019-03-23T21:16:11.975Z,42.30
2019-03-23T21:18:40.473Z,42.77
2019-03-23T21:21:08.924Z,40.67
2019-03-23T21:23:37.545Z,42.63
2019-03-23T21:26:05.990Z,42.30
2019-03-23T21:28:34.464Z,43.27
2019-03-23T21:31:02.953Z,41.97
2019-03-23T21:33:32.130Z,41.50
2019-03-23T21:36:01.577Z,43.67
2019-03-23T21:38:30.075Z,43.50
2019-03-23T21:40:58.561Z,43.00
2019-03-23T21:43:27.036Z,44.87
2019-03-23T21:45:55.564Z,44.40
2019-03-23T21:48:24.105Z,43.43
2019-03-23T21:50:52.563Z,43.30
2019-03-23T21:53:20.978Z,42.83
2019-03-23T21:55:49.679Z,44.57
2019-03-23T21:58:18.099Z,43.53
2019-03-23T22:00:46.572Z,43.33
2019-03-23T22:03:15.036Z,46.50
2019-03-23T22:05:43.518Z,42.60
2019-03-23T22:08:11.926Z,44.83
2019-03-23T22:10:40.372Z,44.00
2019-03-23T22:13:08.862Z,44.00
2019-03-23T22:15:37.328Z,44.57
2019-03-23T22:18:05.828Z,45.67
2019-03-23T22:20:34.282Z,44.77
2019-03-23T22:23:02.757Z,44.63
2019-03-23T22:25:31.268Z,47.67
2019-03-23T22:27:59.734Z,45.27
2019-03-23T22:30:28.177Z,46.33
2019-03-23T22:32:56.623Z,46.10
2019-03-23T22:35:25.083Z,47.50
2019-03-23T22:37:53.574Z,45.83
2019-03-23T22:40:22.027Z,49.13
2019-03-23T22:42:50.505Z,47.20
2019-03-23T22:45:18.938Z,48.07
2019-03-23T22:47:47.392Z,46.77
2019-03-23T22:50:15.846Z,48.00
2019-03-23T22:52:44.350Z,45.80
2019-03-23T22:55:12.782Z,46.57
2019-03-23T22:57:41.328Z,44.67
2019-03-23T23:00:17.475Z,47.67
2019-03-23T23:02:46.390Z,45.67
2019-03-23T23:05:15.020Z,49.70
2019-03-23T23:07:43.547Z,47.70
2019-03-23T23:10:12.446Z,45.77
2019-03-23T23:12:40.947Z,46.20
2019-03-23T23:15:09.488Z,46.40
2019-03-23T23:17:38.059Z,46.53
2019-03-23T23:20:10.859Z,47.87
2019-03-23T23:22:39.321Z,48.20
2019-03-23T23:25:08.423Z,50.63
2019-03-23T23:27:37.067Z,48.33
2019-03-23T23:30:10.545Z,49.53
2019-03-23T23:32:39.042Z,49.87
2019-03-23T23:35:09.404Z,51.83
2019-03-23T23:37:38.045Z,48.70
2019-03-23T23:40:07.425Z,47.60
2019-03-23T23:42:36.046Z,50.10
2019-03-23T23:45:15.171Z,49.83
2019-03-23T23:47:39.553Z,47.63
2019-03-23T23:50:08.633Z,47.67
2019-03-23T23:52:37.072Z,49.93
2019-03-23T23:55:06.968Z,52.20
2019-03-23T23:57:35.411Z,47.97
